createdAt,value
2023-12-09T00:02:33.284Z,100875.31
2023-12-09T00:07:34.821Z,100868.84
2023-12-09T00:12:36.431Z,100865.19
2023-12-09T00:17:38.038Z,100868.22
2023-12-09T00:22:39.910Z,100865.50
2023-12-09T00:27:41.499Z,100871.38
2023-12-09T00:32:43.242Z,100871.75
2023-12-09T00:37:44.861Z,100866.44
2023-12-09T00:42:49.097Z,100860.88
2023-12-09T00:47:50.750Z,100859.88
2023-12-09T00:52:52.532Z,100875.34
2023-12-09T00:57:54.062Z,100874.19
2023-12-09T01:02:55.683Z,100877.41
2023-12-09T01:07:57.387Z,100874.59
2023-12-09T01:12:58.943Z,100877.97
2023-12-09T01:18:00.521Z,100869.84
2023-12-09T01:23:02.064Z,100872.31
2023-12-09T01:28:03.628Z,100863.34
2023-12-09T01:33:05.251Z,100859.66
2023-12-09T01:38:06.896Z,100860.28
2023-12-09T01:43:10.323Z,100852.19
2023-12-09T01:48:12.057Z,100852.25
2023-12-09T01:53:13.764Z,100840.59
2023-12-09T01:58:18.533Z,100842.19
2023-12-09T02:03:20.316Z,100837.47
2023-12-09T02:08:22.034Z,100843.59
2023-12-09T02:13:31.506Z,100833.72
2023-12-09T02:18:34.942Z,100839.91
2023-12-09T02:23:36.749Z,100830.94
2023-12-09T02:28:41.999Z,100835.28
2023-12-09T02:33:47.056Z,100826.22
2023-12-09T02:38:50.347Z,100830.63
2023-12-09T02:43:51.983Z,100821.69
2023-12-09T02:48:53.624Z,100812.78
2023-12-09T02:53:55.770Z,100824.06
2023-12-09T02:58:57.317Z,100816.16
2023-12-09T03:03:58.982Z,100812.38
2023-12-09T03:09:00.728Z,100818.25
2023-12-09T03:14:02.245Z,100818.25
2023-12-09T03:19:03.884Z,100816.31
2023-12-09T03:24:05.766Z,100819.50
2023-12-09T03:29:07.309Z,100812.63
2023-12-09T03:34:09.027Z,100810.78
2023-12-09T03:39:10.785Z,100798.47
2023-12-09T03:44:12.426Z,100803.63
2023-12-09T03:49:14.011Z,100797.47
2023-12-09T03:54:15.810Z,100796.50
2023-12-09T03:59:17.411Z,100790.31
2023-12-09T04:04:19.037Z,100792.88
2023-12-09T04:09:23.404Z,100790.19
2023-12-09T04:14:25.034Z,100781.41
2023-12-09T04:19:26.643Z,100783.81
2023-12-09T04:24:28.417Z,100783.88
2023-12-09T04:29:29.967Z,100775.09
2023-12-09T04:34:31.670Z,100764.66
2023-12-09T04:39:33.353Z,100767.13
2023-12-09T04:44:34.939Z,100760.19
2023-12-09T04:49:36.598Z,100745.31
2023-12-09T04:54:38.233Z,100747.78
2023-12-09T04:59:39.821Z,100750.19
2023-12-09T05:04:41.363Z,100753.69
2023-12-09T05:09:43.706Z,100756.16
2023-12-09T05:14:45.239Z,100757.19
2023-12-09T05:19:46.789Z,100758.78
2023-12-09T05:24:48.945Z,100746.56
2023-12-09T05:29:50.519Z,100739.56
2023-12-09T05:34:52.080Z,100747.38
2023-12-09T05:39:53.606Z,100748.34
2023-12-09T05:44:55.165Z,100750.78
2023-12-09T05:49:56.714Z,100739.47
2023-12-09T05:54:58.261Z,100741.19
2023-12-09T05:59:59.866Z,100749.00
2023-12-09T06:05:01.474Z,100751.53
2023-12-09T06:10:03.746Z,100747.16
2023-12-09T06:15:08.333Z,100741.94
2023-12-09T06:20:10.534Z,100740.16
2023-12-09T06:25:12.058Z,100738.44
2023-12-09T06:30:13.936Z,100734.88
2023-12-09T06:35:15.550Z,100747.16
2023-12-09T06:40:17.332Z,100747.09
2023-12-09T06:45:19.000Z,100741.88
2023-12-09T06:50:21.790Z,100742.63
2023-12-09T06:55:23.307Z,100750.50
2023-12-09T07:00:24.937Z,100734.88
2023-12-09T07:05:27.643Z,100734.94
2023-12-09T07:10:29.476Z,100734.94
2023-12-09T07:15:31.081Z,100731.50
2023-12-09T07:20:32.649Z,100732.31
